< < Back
Terminal Aerodrome Forecast


Current Version              Previous Versions:   1  2  3  4  5  6  7  8  9  

Terminal Aerodrome Forecast

954
FTUS44 KHUN 292320
TAFHSV
TAF
KHSV 292320Z 3000/3024 34007KT P6SM SCT070
     FM300000 VRB04KT P6SM SKC
     FM301500 36007KT P6SM SCT090=

Latest METAR

502
SAUS80 KWBC 300700 RRB
MTRHSV
METAR KHSV 300653Z AUTO 00000KT 10SM CLR 16/13 A3008 RMK AO2 SLP181
T01560133


USA.gov is the U.S. government's official web portal to all federal, state and local government web resources and services.